createdAt,value
2022-08-07T00:00:59.515Z,23.63
2022-08-07T00:04:03.519Z,23.60
2022-08-07T00:07:09.587Z,23.52
2022-08-07T00:10:27.186Z,23.59
2022-08-07T00:13:32.919Z,23.64
2022-08-07T00:16:35.966Z,23.66
2022-08-07T00:20:01.461Z,23.56
2022-08-07T00:23:00.957Z,23.69
2022-08-07T00:26:18.588Z,23.74
2022-08-07T00:29:31.415Z,23.73
2022-08-07T00:32:35.042Z,23.66
2022-08-07T00:35:38.346Z,23.77
2022-08-07T00:38:40.874Z,23.69
2022-08-07T00:41:53.433Z,23.77
2022-08-07T00:45:07.061Z,23.68
2022-08-07T00:48:11.271Z,23.69
2022-08-07T00:51:14.368Z,23.68
2022-08-07T00:54:19.645Z,23.61
2022-08-07T00:57:25.159Z,23.74
2022-08-07T01:00:29.004Z,23.72
2022-08-07T01:03:55.450Z,23.76
2022-08-07T01:06:57.717Z,23.76
2022-08-07T01:10:07.182Z,23.76
2022-08-07T01:13:16.469Z,23.65
2022-08-07T01:16:30.062Z,23.76
2022-08-07T01:19:34.599Z,23.79
2022-08-07T01:22:54.338Z,23.68
2022-08-07T01:26:08.446Z,23.77
2022-08-07T01:29:17.454Z,23.75
2022-08-07T01:32:22.422Z,23.69
2022-08-07T01:35:26.652Z,23.61
2022-08-07T01:38:49.408Z,23.63
2022-08-07T01:42:07.420Z,23.75
2022-08-07T01:45:18.459Z,23.75
2022-08-07T01:48:30.378Z,23.64
2022-08-07T01:52:03.459Z,23.68
2022-08-07T01:55:00.227Z,23.64
2022-08-07T01:58:29.233Z,23.59
2022-08-07T02:02:00.035Z,23.59
2022-08-07T02:05:04.986Z,23.58
2022-08-07T02:08:16.156Z,23.68
2022-08-07T02:11:30.997Z,23.67
2022-08-07T02:14:53.793Z,23.67
2022-08-07T02:18:02.805Z,23.69
2022-08-07T02:21:08.493Z,23.69
2022-08-07T02:24:19.739Z,23.68
2022-08-07T02:27:23.691Z,23.53
2022-08-07T02:30:27.677Z,23.63
2022-08-07T02:33:42.053Z,23.60
2022-08-07T02:36:59.214Z,23.60
2022-08-07T02:40:29.845Z,23.61
2022-08-07T02:43:30.223Z,23.60
2022-08-07T02:46:34.264Z,23.50
2022-08-07T02:49:57.585Z,23.60
2022-08-07T02:53:07.032Z,23.61
2022-08-07T02:56:21.772Z,23.55
2022-08-07T02:59:27.410Z,23.52
2022-08-07T03:02:31.990Z,23.42
2022-08-07T03:05:37.088Z,23.43
2022-08-07T03:08:40.951Z,23.49
2022-08-07T03:11:51.734Z,23.44
2022-08-07T03:15:07.902Z,23.36
2022-08-07T03:18:20.017Z,23.35
2022-08-07T03:21:24.495Z,23.35
2022-08-07T03:24:28.759Z,23.37
2022-08-07T03:27:58.719Z,23.36
2022-08-07T03:31:16.991Z,23.24
2022-08-07T03:34:22.570Z,23.35
2022-08-07T03:37:28.020Z,23.24
2022-08-07T03:40:36.169Z,23.24
2022-08-07T03:43:39.842Z,23.32
2022-08-07T03:47:13.287Z,23.35
2022-08-07T03:50:22.883Z,23.31
2022-08-07T03:53:50.167Z,23.17
2022-08-07T03:57:03.524Z,23.11
2022-08-07T04:00:07.980Z,23.26
2022-08-07T04:03:18.282Z,23.25
2022-08-07T04:06:37.906Z,23.06
2022-08-07T04:09:50.129Z,23.09
2022-08-07T04:12:54.916Z,22.95
2022-08-07T04:15:58.411Z,23.05
2022-08-07T04:19:04.223Z,22.92
2022-08-07T04:22:18.951Z,23.10
2022-08-07T04:25:23.525Z,23.08
2022-08-07T04:28:26.863Z,23.18
2022-08-07T04:31:38.982Z,23.33
2022-08-07T04:34:55.597Z,23.36
2022-08-07T04:38:03.384Z,23.26
2022-08-07T04:41:10.789Z,23.40
2022-08-07T04:44:22.755Z,23.35
2022-08-07T04:48:01.133Z,23.39
2022-08-07T04:51:04.021Z,23.54
2022-08-07T04:54:30.158Z,23.52
2022-08-07T04:58:34.982Z,23.56
2022-08-07T05:01:46.974Z,23.56
2022-08-07T05:05:11.906Z,23.57
2022-08-07T05:08:45.855Z,23.59
2022-08-07T05:12:07.496Z,23.55
2022-08-07T05:15:23.530Z,23.43
2022-08-07T05:18:29.998Z,23.22
2022-08-07T05:21:59.797Z,23.33
2022-08-07T05:25:01.256Z,23.33
2022-08-07T05:28:20.352Z,23.37
2022-08-07T05:31:35.129Z,23.27
2022-08-07T05:34:41.989Z,23.38
2022-08-07T05:37:46.245Z,23.40
2022-08-07T05:41:14.345Z,23.44
2022-08-07T05:44:29.468Z,23.43
2022-08-07T05:47:38.217Z,23.46
2022-08-07T05:50:59.445Z,23.48
2022-08-07T05:54:12.984Z,23.40
2022-08-07T05:57:30.104Z,23.43
2022-08-07T06:00:38.534Z,23.60
2022-08-07T06:03:56.503Z,23.48
2022-08-07T06:07:05.930Z,23.63
2022-08-07T06:10:15.149Z,23.73
2022-08-07T06:13:19.850Z,23.79
2022-08-07T06:16:50.597Z,23.87
2022-08-07T06:20:03.725Z,23.97
2022-08-07T06:23:45.813Z,24.06
2022-08-07T06:26:31.797Z,24.18
2022-08-07T06:29:38.754Z,24.24
2022-08-07T06:32:41.955Z,24.17
2022-08-07T06:36:06.807Z,24.23
2022-08-07T06:40:17.187Z,24.19
2022-08-07T06:42:37.586Z,24.24
2022-08-07T06:45:44.281Z,24.23
2022-08-07T06:48:47.745Z,24.40
2022-08-07T06:51:59.226Z,24.40
2022-08-07T06:55:33.208Z,24.51
2022-08-07T07:00:14.772Z,24.65
2022-08-07T07:02:49.253Z,24.80
2022-08-07T07:06:05.048Z,24.88
2022-08-07T07:09:23.078Z,24.92
2022-08-07T07:12:53.557Z,25.11
2022-08-07T07:16:03.167Z,25.06
2022-08-07T07:19:56.262Z,25.10
2022-08-07T07:22:36.194Z,25.11
2022-08-07T07:26:31.225Z,25.03
2022-08-07T07:29:39.391Z,24.90
2022-08-07T07:32:40.403Z,24.95
2022-08-07T07:35:54.705Z,24.78
2022-08-07T07:39:10.331Z,24.83
2022-08-07T07:42:19.719Z,24.76
2022-08-07T07:46:37.128Z,24.69
2022-08-07T07:48:59.931Z,24.60
2022-08-07T07:52:13.063Z,24.71
2022-08-07T07:55:18.635Z,24.94
2022-08-07T07:58:23.052Z,24.99
2022-08-07T08:02:03.731Z,25.12
2022-08-07T08:04:57.523Z,25.11
2022-08-07T08:08:01.950Z,25.28
2022-08-07T08:11:08.428Z,25.41
2022-08-07T08:14:11.553Z,25.60
2022-08-07T08:17:58.243Z,25.72
2022-08-07T08:20:39.438Z,26.18
2022-08-07T08:24:05.176Z,26.63
2022-08-07T08:27:09.750Z,26.87
2022-08-07T08:30:17.402Z,26.84
2022-08-07T08:33:24.981Z,27.29
2022-08-07T08:36:34.117Z,27.38
2022-08-07T08:39:39.645Z,27.48
2022-08-07T08:43:15.966Z,27.85
2022-08-07T08:46:28.852Z,27.93
2022-08-07T08:50:05.068Z,28.06
2022-08-07T08:53:29.421Z,28.07
2022-08-07T08:56:47.100Z,28.36
2022-08-07T09:00:13.962Z,28.57
2022-08-07T09:03:47.929Z,28.75
2022-08-07T09:07:14.418Z,29.36
2022-08-07T09:10:54.597Z,30.15
2022-08-07T09:14:32.049Z,30.47
2022-08-07T09:17:59.385Z,31.25
2022-08-07T09:22:10.084Z,31.58
2022-08-07T09:25:24.319Z,31.97
2022-08-07T09:30:05.754Z,32.37
2022-08-07T09:32:21.667Z,32.29
2022-08-07T09:36:01.205Z,31.69
2022-08-07T09:39:27.495Z,31.08
2022-08-07T09:42:39.641Z,31.13
2022-08-07T09:47:42.521Z,30.95
2022-08-07T09:50:00.888Z,30.88
2022-08-07T09:53:10.040Z,30.93
2022-08-07T09:56:55.311Z,31.16
2022-08-07T10:00:08.819Z,30.86
2022-08-07T10:04:07.042Z,30.98
2022-08-07T10:07:25.775Z,31.24
2022-08-07T10:12:00.268Z,31.57
2022-08-07T10:15:01.886Z,32.02
2022-08-07T10:18:20.154Z,32.12
2022-08-07T10:22:14.731Z,31.71
2022-08-07T10:25:13.693Z,31.77
2022-08-07T10:28:50.220Z,31.16
2022-08-07T10:31:57.504Z,30.91
2022-08-07T10:35:09.125Z,30.90
2022-08-07T10:38:42.345Z,30.81
2022-08-07T10:42:20.922Z,30.87
2022-08-07T10:45:57.170Z,30.82
2022-08-07T10:49:45.284Z,30.93
2022-08-07T10:52:55.431Z,30.85
2022-08-07T10:56:05.072Z,30.86
2022-08-07T10:59:37.338Z,30.76
2022-08-07T11:03:02.289Z,30.58
2022-08-07T11:06:21.922Z,30.80
2022-08-07T11:10:07.276Z,31.12
2022-08-07T11:14:42.221Z,31.51
2022-08-07T11:17:23.141Z,31.66
2022-08-07T11:21:20.669Z,32.29
2022-08-07T11:24:33.596Z,32.49
2022-08-07T11:28:16.744Z,32.85
2022-08-07T11:31:37.188Z,32.96
2022-08-07T11:34:47.800Z,32.83
2022-08-07T11:38:12.511Z,32.79
2022-08-07T11:41:28.288Z,32.49
2022-08-07T11:45:13.291Z,32.07
2022-08-07T11:48:37.554Z,32.48
2022-08-07T11:52:10.568Z,32.80
2022-08-07T11:56:25.050Z,33.15
2022-08-07T12:00:12.045Z,33.90
2022-08-07T12:03:41.858Z,34.31
2022-08-07T12:06:51.680Z,34.72
2022-08-07T12:10:12.713Z,35.36
2022-08-07T12:13:43.426Z,34.90
2022-08-07T12:17:04.320Z,35.10
2022-08-07T12:20:30.893Z,34.94
2022-08-07T12:24:07.615Z,35.10
2022-08-07T12:27:28.147Z,35.32
2022-08-07T12:30:46.606Z,35.33
2022-08-07T12:33:56.128Z,34.88
2022-08-07T12:37:08.629Z,34.83
2022-08-07T12:40:47.406Z,35.02
2022-08-07T12:44:02.222Z,35.02
2022-08-07T12:47:37.749Z,35.15
2022-08-07T12:51:17.126Z,34.96
2022-08-07T12:54:41.617Z,35.13
2022-08-07T12:58:01.349Z,35.40
2022-08-07T13:01:18.290Z,35.28
2022-08-07T13:05:01.961Z,35.37
2022-08-07T13:08:31.757Z,35.28
2022-08-07T13:12:03.518Z,35.20
2022-08-07T13:15:32.570Z,35.23
2022-08-07T13:18:48.968Z,35.23
2022-08-07T13:22:04.136Z,35.17
2022-08-07T13:25:30.001Z,34.98
2022-08-07T13:29:06.644Z,35.01
2022-08-07T13:32:32.404Z,35.07
2022-08-07T13:36:00.584Z,35.05
2022-08-07T13:39:12.797Z,34.94
2022-08-07T13:42:35.196Z,34.82
2022-08-07T13:46:16.406Z,34.90
2022-08-07T13:50:33.009Z,34.97
2022-08-07T13:52:43.004Z,34.94
2022-08-07T13:55:54.902Z,34.85
2022-08-07T13:59:01.343Z,34.75
2022-08-07T14:02:12.897Z,34.42
2022-08-07T14:05:23.159Z,34.37
2022-08-07T14:08:27.447Z,34.10
2022-08-07T14:11:53.608Z,33.93
2022-08-07T14:15:04.822Z,33.79
2022-08-07T14:18:27.898Z,33.73
2022-08-07T14:22:01.089Z,33.78
2022-08-07T14:25:15.799Z,33.43
2022-08-07T14:28:19.309Z,33.41
2022-08-07T14:31:25.263Z,33.45
2022-08-07T14:34:48.185Z,33.45
2022-08-07T14:38:05.814Z,33.33
2022-08-07T14:41:15.104Z,33.28
2022-08-07T14:44:37.434Z,33.23
2022-08-07T14:47:41.639Z,33.15
2022-08-07T14:50:53.232Z,33.16
2022-08-07T14:54:10.049Z,33.04
2022-08-07T14:57:24.542Z,32.77
2022-08-07T15:00:31.868Z,32.65
2022-08-07T15:03:52.150Z,32.43
2022-08-07T15:06:56.877Z,32.45
2022-08-07T15:10:04.679Z,32.29
2022-08-07T15:13:25.396Z,32.34
2022-08-07T15:16:37.264Z,32.41
2022-08-07T15:20:33.364Z,32.39
2022-08-07T15:25:03.055Z,32.34
2022-08-07T15:27:06.820Z,32.10
2022-08-07T15:30:16.652Z,32.01
2022-08-07T15:33:21.089Z,31.93
2022-08-07T15:37:03.110Z,31.80
2022-08-07T15:40:01.100Z,31.71
2022-08-07T15:43:52.826Z,31.67
2022-08-07T15:46:51.893Z,31.66
2022-08-07T15:50:03.687Z,31.60
2022-08-07T15:53:13.121Z,31.60
2022-08-07T15:56:19.621Z,31.58
2022-08-07T15:59:39.131Z,31.41
2022-08-07T16:02:46.675Z,31.42
2022-08-07T16:05:51.896Z,31.33
2022-08-07T16:08:59.726Z,31.12
2022-08-07T16:12:28.499Z,31.18
2022-08-07T16:16:42.984Z,31.03
2022-08-07T16:19:58.975Z,30.97
2022-08-07T16:23:52.917Z,30.89
2022-08-07T16:26:59.368Z,30.86
2022-08-07T16:30:30.459Z,30.69
2022-08-07T16:34:02.520Z,30.69
2022-08-07T16:38:03.535Z,30.58
2022-08-07T16:41:20.903Z,30.46
2022-08-07T16:45:24.596Z,30.50
2022-08-07T16:50:28.168Z,30.41
2022-08-07T16:52:57.326Z,30.36
2022-08-07T16:56:13.866Z,30.32
2022-08-07T16:59:51.205Z,30.15
2022-08-07T17:03:04.846Z,30.16
2022-08-07T17:06:30.413Z,30.06
2022-08-07T17:10:08.797Z,29.85
2022-08-07T17:13:22.705Z,29.76
2022-08-07T17:16:55.495Z,29.55
2022-08-07T17:20:14.071Z,29.34
2022-08-07T17:23:39.434Z,29.23
2022-08-07T17:27:32.733Z,29.10
2022-08-07T17:31:15.941Z,28.84
2022-08-07T17:34:36.753Z,28.84
2022-08-07T17:38:11.406Z,28.77
2022-08-07T17:42:04.863Z,28.71
2022-08-07T17:44:58.550Z,28.64
2022-08-07T17:48:12.813Z,28.58
2022-08-07T17:51:23.109Z,28.43
2022-08-07T17:54:39.899Z,28.50
2022-08-07T17:58:04.993Z,28.45
2022-08-07T18:01:22.019Z,28.30
2022-08-07T18:04:35.097Z,28.25
2022-08-07T18:07:43.842Z,28.31
2022-08-07T18:12:07.797Z,28.26
2022-08-07T18:14:09.559Z,28.22
2022-08-07T18:18:46.258Z,28.17
2022-08-07T18:21:38.336Z,28.12
2022-08-07T18:24:37.383Z,28.07
2022-08-07T18:28:34.078Z,27.92
2022-08-07T18:31:52.493Z,28.00
2022-08-07T18:35:02.023Z,27.85
2022-08-07T18:38:57.755Z,27.94
2022-08-07T18:42:01.802Z,27.80
2022-08-07T18:45:44.210Z,27.85
2022-08-07T18:50:06.046Z,27.85
2022-08-07T18:52:52.754Z,27.73
2022-08-07T18:56:34.151Z,27.82
2022-08-07T19:00:00.442Z,27.67
2022-08-07T19:03:18.359Z,27.71
2022-08-07T19:06:33.763Z,27.55
2022-08-07T19:09:56.830Z,27.44
2022-08-07T19:13:25.682Z,27.47
2022-08-07T19:17:08.154Z,27.33
2022-08-07T19:20:29.989Z,27.22
2022-08-07T19:23:57.485Z,27.00
2022-08-07T19:28:29.076Z,27.05
2022-08-07T19:31:06.249Z,26.98
2022-08-07T19:33:59.916Z,26.86
2022-08-07T19:37:16.812Z,26.68
2022-08-07T19:40:30.981Z,26.72
2022-08-07T19:43:50.224Z,26.64
2022-08-07T19:47:05.015Z,26.59
2022-08-07T19:50:42.963Z,26.54
2022-08-07T19:54:33.256Z,26.48
2022-08-07T19:57:59.946Z,26.37
2022-08-07T20:00:28.957Z,26.32
2022-08-07T20:03:36.262Z,26.21
2022-08-07T20:06:43.074Z,26.06
2022-08-07T20:10:37.932Z,26.06
2022-08-07T20:13:23.497Z,26.01
2022-08-07T20:16:36.344Z,25.95
2022-08-07T20:19:48.377Z,25.92
2022-08-07T20:23:23.446Z,25.85
2022-08-07T20:26:45.165Z,25.83
2022-08-07T20:30:02.094Z,25.79
2022-08-07T20:33:19.182Z,25.77
2022-08-07T20:36:36.492Z,25.73
2022-08-07T20:40:02.774Z,25.59
2022-08-07T20:43:14.807Z,25.65
2022-08-07T20:46:34.606Z,25.55
2022-08-07T20:49:58.116Z,25.41
2022-08-07T20:53:04.650Z,25.48
2022-08-07T20:56:10.513Z,25.32
2022-08-07T21:00:04.926Z,25.34
2022-08-07T21:02:58.601Z,25.37
2022-08-07T21:06:21.522Z,25.28
2022-08-07T21:09:35.431Z,25.06
2022-08-07T21:12:58.416Z,25.12
2022-08-07T21:16:05.181Z,24.95
2022-08-07T21:19:13.916Z,25.02
2022-08-07T21:22:19.335Z,24.88
2022-08-07T21:25:56.174Z,24.94
2022-08-07T21:29:15.881Z,24.89
2022-08-07T21:32:50.325Z,24.84
2022-08-07T21:36:31.282Z,24.77
2022-08-07T21:39:56.409Z,24.71
2022-08-07T21:43:00.178Z,24.56
2022-08-07T21:46:25.115Z,24.63
2022-08-07T21:50:01.297Z,24.49
2022-08-07T21:53:08.660Z,24.55
2022-08-07T21:56:36.498Z,24.52
2022-08-07T22:00:05.511Z,24.48
2022-08-07T22:03:31.011Z,24.41
2022-08-07T22:06:49.639Z,24.39
2022-08-07T22:09:57.156Z,24.23
2022-08-07T22:13:12.679Z,23.78
2022-08-07T22:16:39.616Z,24.30
2022-08-07T22:19:57.342Z,24.26
2022-08-07T22:23:09.738Z,24.26
2022-08-07T22:26:28.659Z,24.22
2022-08-07T22:29:48.436Z,24.16
2022-08-07T22:33:05.128Z,24.11
2022-08-07T22:36:29.252Z,23.98
2022-08-07T22:39:52.737Z,23.96
2022-08-07T22:43:07.209Z,23.91
2022-08-07T22:47:02.266Z,23.89
2022-08-07T22:50:33.318Z,24.00
2022-08-07T22:54:08.271Z,23.86
2022-08-07T22:57:48.256Z,23.95
2022-08-07T23:01:01.684Z,23.95
2022-08-07T23:04:30.660Z,23.91
2022-08-07T23:08:24.400Z,23.88
2022-08-07T23:11:59.146Z,23.86
2022-08-07T23:16:04.504Z,23.83
2022-08-07T23:19:47.658Z,23.82
2022-08-07T23:22:59.143Z,23.78
2022-08-07T23:26:23.581Z,23.77
2022-08-07T23:30:39.357Z,23.75
2022-08-07T23:34:37.944Z,23.70
2022-08-07T23:38:19.181Z,23.67
2022-08-07T23:42:01.731Z,23.63
2022-08-07T23:45:05.154Z,23.60
2022-08-07T23:48:38.136Z,23.57
2022-08-07T23:53:06.749Z,23.56
2022-08-07T23:55:53.045Z,23.54
2022-08-07T23:59:10.148Z,23.40
